»·PEaware :: SWA957 KLAS-KTUS

SWA957 :: KLAS-KTUS

FLIGHT INFORMATION

Flight Status: Arrived
Operator:
Southwest Airlines
More flights by this operator :: More flights under this callsign
Pilot: Daniel W. (24238)
Aircraft: BOEING 737-800
(B738)
More flights by this aircraft type
Origin: KLAS Harry Reid Intl
United States
Destination: KTUS Tucson Intl
United States
More flights between these airports :: More routes between these airports
Route: RASLR3 ZAYNE DRK J11 PXR DINGO5
File this flight plan on PilotEdge
Remarks: PBN / A1C1D1L1O1S2TI NAV / RNVD1E1A1 RNP10 RNP4 DAT / 1FANSE2PDC SUR / 260B REG / N8541W EET / KZAB0018 SEL / ESAJ CODE / ABB8C4
Altitude:
(Current/Filed)
33,000ft
Speed:
(Current/Filed)
450kts
Departed: 26-Nov-23 03:11 PM
Arrived: 26-Nov-23 04:11 PM
Distance/Time
Traveled:
317nm/1:00
Distance/Time
To Go:
Arrived

Flight Plot

Page will automatically refresh every two minutes.

Flight plan parsing failed; only flown route is shown


Map Options




Map Legend


Flown Route
Filed Route
Departure Airport
Arrival Airport
Navaid (VOR, NDB)
Fix

Horizontal Profiles

Position Reports

Time Latitude Longitude Heading Altitude Ground
Speed
26-Nov-23 14:28 36.080256 -115.147289 58 2187ft 0kts
26-Nov-23 14:29 36.080256 -115.147289 58 2187ft 0kts
26-Nov-23 14:30 36.080256 -115.147289 58 2187ft 0kts
26-Nov-23 14:31 36.080256 -115.147289 58 2187ft 0kts
26-Nov-23 14:32 36.080256 -115.147289 58 2187ft 0kts
26-Nov-23 14:33 36.080256 -115.147289 58 2187ft 0kts
26-Nov-23 14:34 36.080256 -115.147289 58 2187ft 0kts
26-Nov-23 14:35 36.080256 -115.147289 58 2187ft 0kts
26-Nov-23 14:36 36.080256 -115.147289 58 2187ft 0kts
26-Nov-23 14:37 36.080256 -115.147289 58 2187ft 0kts
26-Nov-23 14:38 36.080256 -115.147289 58 2187ft 0kts
26-Nov-23 14:39 36.080256 -115.147289 58 2187ft 0kts
26-Nov-23 14:40 36.080256 -115.147289 58 2187ft 0kts
26-Nov-23 14:41 36.080256 -115.147289 58 2187ft 0kts
26-Nov-23 14:42 36.080256 -115.147289 58 2187ft 0kts
26-Nov-23 14:43 36.080256 -115.147289 58 2187ft 0kts
26-Nov-23 14:44 36.080256 -115.147289 58 2187ft 0kts
26-Nov-23 14:45 36.080256 -115.147289 58 2187ft 0kts
26-Nov-23 14:46 36.080256 -115.147289 58 2187ft 0kts
26-Nov-23 14:47 36.080256 -115.147289 58 2187ft 0kts
26-Nov-23 14:48 36.080256 -115.147289 58 2186ft 0kts
26-Nov-23 14:49 36.080256 -115.147289 58 2186ft 0kts
26-Nov-23 14:50 36.080256 -115.147289 58 2186ft 0kts
26-Nov-23 14:51 36.080256 -115.147289 58 2186ft 0kts
26-Nov-23 14:52 36.080256 -115.147289 58 2186ft 0kts
26-Nov-23 14:53 36.080256 -115.147289 58 2186ft 0kts
26-Nov-23 14:54 36.080256 -115.147289 58 2186ft 0kts
26-Nov-23 14:55 36.080256 -115.147289 58 2186ft 0kts
26-Nov-23 14:56 36.080256 -115.147289 58 2186ft 0kts
26-Nov-23 14:57 36.080256 -115.147289 58 2186ft 0kts
26-Nov-23 14:58 36.080256 -115.147289 58 2186ft 0kts
26-Nov-23 14:59 36.080256 -115.147289 58 2186ft 0kts
26-Nov-23 15:00 36.080052 -115.147704 58 2188ft 2kts
26-Nov-23 15:01 36.079991 -115.147988 96 2188ft 0kts
26-Nov-23 15:02 36.079991 -115.147988 96 2188ft 0kts
26-Nov-23 15:03 36.079698 -115.147719 155 2189ft 8kts
26-Nov-23 15:04 36.079193 -115.147436 155 2188ft 0kts
26-Nov-23 15:05 36.078741 -115.150476 274 2190ft 20kts
26-Nov-23 15:06 36.078040 -115.156235 269 2187ft 17kts
26-Nov-23 15:07 36.077659 -115.163324 204 2190ft 6kts
26-Nov-23 15:08 36.077549 -115.163385 204 2188ft 0kts
26-Nov-23 15:09 36.074010 -115.165516 231 2189ft 16kts
26-Nov-23 15:10 36.080516 -115.163928 24 2187ft 103kts
26-Nov-23 15:11 36.118990 -115.137487 54 4029ft 190kts
26-Nov-23 15:12 36.134151 -115.059411 80 5468ft 260kts
26-Nov-23 15:13 36.143062 -114.967855 80 8268ft 274kts
26-Nov-23 15:14 36.151452 -114.870551 98 11410ft 296kts
26-Nov-23 15:15 36.127348 -114.770061 116 14445ft 314kts
26-Nov-23 15:16 36.051619 -114.698168 148 15794ft 379kts
26-Nov-23 15:17 35.960107 -114.626686 148 18379ft 399kts
26-Nov-23 15:18 35.865089 -114.551376 149 20700ft 413kts
26-Nov-23 15:19 35.766190 -114.473148 150 22748ft 431kts
26-Nov-23 15:20 35.665642 -114.388898 143 24641ft 447kts
26-Nov-23 15:21 35.571082 -114.285778 142 26276ft 459kts
26-Nov-23 15:22 35.473562 -114.182649 143 27832ft 469kts
26-Nov-23 15:23 35.373173 -114.077332 144 29236ft 479kts
26-Nov-23 15:24 35.291602 -113.948352 106 30582ft 504kts
26-Nov-23 15:25 35.258959 -113.781434 106 32009ft 503kts
26-Nov-23 15:26 35.219954 -113.618672 121 33122ft 497kts
26-Nov-23 15:27 35.152875 -113.472774 124 33096ft 490kts
26-Nov-23 15:28 35.086941 -113.327008 123 33102ft 489kts
26-Nov-23 15:29 35.021686 -113.181396 123 33107ft 490kts
26-Nov-23 15:30 34.956120 -113.035930 123 33121ft 490kts
26-Nov-23 15:31 34.890121 -112.890143 123 33122ft 491kts
26-Nov-23 15:32 34.824007 -112.744694 123 33122ft 491kts
26-Nov-23 15:33 34.757770 -112.599549 124 33150ft 491kts
26-Nov-23 15:34 34.676769 -112.472810 155 33174ft 463kts
26-Nov-23 15:35 34.558712 -112.421029 168 33163ft 450kts
26-Nov-23 15:37 34.439525 -112.373022 168 33136ft 452kts
26-Nov-23 15:38 34.320259 -112.324721 168 33120ft 453kts
26-Nov-23 15:39 34.200654 -112.276438 168 33077ft 453kts
26-Nov-23 15:40 34.080892 -112.228250 168 33081ft 453kts
26-Nov-23 15:41 33.961468 -112.180340 168 33064ft 452kts
26-Nov-23 15:42 33.842405 -112.132721 168 33063ft 451kts
26-Nov-23 15:43 33.723132 -112.085154 168 33076ft 451kts
26-Nov-23 15:44 33.604342 -112.037917 168 33073ft 450kts
26-Nov-23 15:45 33.485222 -111.990674 168 33047ft 450kts
26-Nov-23 15:46 33.364912 -111.960248 181 33043ft 438kts
26-Nov-23 15:47 33.243244 -111.948630 180 33041ft 439kts
26-Nov-23 15:48 33.121053 -111.935015 180 32323ft 441kts
26-Nov-23 15:49 32.998068 -111.921251 180 31319ft 445kts
26-Nov-23 15:50 32.875668 -111.899922 159 30315ft 457kts
26-Nov-23 15:51 32.770683 -111.813882 150 29267ft 456kts
26-Nov-23 15:52 32.669189 -111.729400 150 27296ft 435kts
26-Nov-23 15:53 32.571470 -111.648959 150 25395ft 421kts
26-Nov-23 15:54 32.495183 -111.543593 130 23505ft 423kts
26-Nov-23 15:55 32.425756 -111.433700 130 21541ft 410kts
26-Nov-23 15:56 32.351416 -111.334445 139 19604ft 396kts
26-Nov-23 15:57 32.277718 -111.248724 139 17929ft 385kts
26-Nov-23 15:58 32.202650 -111.162561 139 14832ft 381kts
26-Nov-23 15:59 32.126439 -111.077539 139 11498ft 360kts
26-Nov-23 16:00 32.058771 -111.003643 139 10216ft 292kts
26-Nov-23 16:01 32.003784 -110.943745 139 8861ft 262kts
26-Nov-23 16:02 31.952642 -110.883309 112 6987ft 269kts
26-Nov-23 16:02 31.975903 -110.820687 22 5960ft 277kts
26-Nov-23 16:03 32.039861 -110.847835 339 4892ft 239kts
26-Nov-23 16:05 32.081433 -110.898910 317 3539ft 174kts
26-Nov-23 16:06 32.115691 -110.954229 274 4998ft 241kts
26-Nov-23 16:07 32.068826 -110.986824 139 4172ft 237kts
26-Nov-23 16:07 32.043050 -110.938126 82 4100ft 183kts
26-Nov-23 16:08 32.073489 -110.900864 10 3454ft 150kts
26-Nov-23 16:09 32.105915 -110.927454 315 2643ft 141kts
26-Nov-23 16:11 32.119852 -110.940988 0 2583ft 14kts
26-Nov-23 16:11 32.119068 -110.939058 134 2592ft 15kts
26-Nov-23 16:12 32.118491 -110.937350 58 2589ft 0kts
26-Nov-23 16:13 32.118491 -110.937350 58 2589ft 0kts
26-Nov-23 16:14 32.118491 -110.937350 58 2589ft 0kts
26-Nov-23 16:15 32.118491 -110.937350 58 2589ft 0kts
26-Nov-23 16:16 32.118491 -110.937350 58 2589ft 0kts
26-Nov-23 16:17 32.118491 -110.937350 58 2589ft 0kts
26-Nov-23 16:18 32.118491 -110.937350 58 2589ft 0kts
26-Nov-23 16:19 32.118491 -110.937350 58 2589ft 0kts
26-Nov-23 16:20 32.118491 -110.937350 58 2589ft 0kts
26-Nov-23 16:21 32.118491 -110.937350 58 2589ft 0kts
26-Nov-23 16:22 32.118491 -110.937350 58 2589ft 0kts

Navigation Log

Ident Type
Flight plan parsing failed, navigation log unavailable